sensor_id;sensor_type;location;lat;lon;timestamp;P1;durP1;ratioP1;P2;durP2;ratioP2
65853;SDS011;52627;48.838;2.402;2023-07-08T00:00:53;7.00;;;4.10;;
65853;SDS011;52627;48.838;2.402;2023-07-08T00:03:21;10.30;;;4.10;;
65853;SDS011;52627;48.838;2.402;2023-07-08T00:05:53;7.90;;;3.90;;
65853;SDS011;52627;48.838;2.402;2023-07-08T00:08:23;12.40;;;3.90;;
65853;SDS011;52627;48.838;2.402;2023-07-08T00:10:50;7.40;;;3.80;;
65853;SDS011;52627;48.838;2.402;2023-07-08T00:13:18;8.20;;;4.10;;
65853;SDS011;52627;48.838;2.402;2023-07-08T00:15:46;7.00;;;4.10;;
65853;SDS011;52627;48.838;2.402;2023-07-08T00:18:16;9.50;;;3.60;;
65853;SDS011;52627;48.838;2.402;2023-07-08T00:23:15;8.00;;;4.00;;
65853;SDS011;52627;48.838;2.402;2023-07-08T00:25:43;6.70;;;3.60;;
65853;SDS011;52627;48.838;2.402;2023-07-08T00:28:18;7.40;;;3.90;;
65853;SDS011;52627;48.838;2.402;2023-07-08T00:30:48;9.40;;;4.10;;
65853;SDS011;52627;48.838;2.402;2023-07-08T00:33:16;7.30;;;4.00;;
65853;SDS011;52627;48.838;2.402;2023-07-08T00:35:45;7.90;;;3.90;;
65853;SDS011;52627;48.838;2.402;2023-07-08T00:38:27;7.80;;;3.50;;
65853;SDS011;52627;48.838;2.402;2023-07-08T00:43:46;8.40;;;4.10;;
65853;SDS011;52627;48.838;2.402;2023-07-08T00:51:41;7.70;;;4.20;;
65853;SDS011;52627;48.838;2.402;2023-07-08T00:54:18;11.20;;;4.30;;
65853;SDS011;52627;48.838;2.402;2023-07-08T00:56:51;8.50;;;4.00;;
65853;SDS011;52627;48.838;2.402;2023-07-08T00:59:29;7.60;;;4.40;;
65853;SDS011;52627;48.838;2.402;2023-07-08T01:02:02;9.70;;;4.70;;
65853;SDS011;52627;48.838;2.402;2023-07-08T01:04:38;7.20;;;3.50;;
65853;SDS011;52627;48.838;2.402;2023-07-08T01:07:18;11.00;;;3.90;;
65853;SDS011;52627;48.838;2.402;2023-07-08T01:12:31;9.50;;;4.50;;
65853;SDS011;52627;48.838;2.402;2023-07-08T01:15:02;8.90;;;4.60;;
65853;SDS011;52627;48.838;2.402;2023-07-08T01:17:30;13.80;;;6.80;;
65853;SDS011;52627;48.838;2.402;2023-07-08T01:20:01;14.00;;;8.10;;
65853;SDS011;52627;48.838;2.402;2023-07-08T01:22:37;18.20;;;10.90;;
65853;SDS011;52627;48.838;2.402;2023-07-08T01:25:06;12.80;;;6.90;;
65853;SDS011;52627;48.838;2.402;2023-07-08T01:27:38;11.70;;;5.90;;
65853;SDS011;52627;48.838;2.402;2023-07-08T01:30:10;9.80;;;4.10;;
65853;SDS011;52627;48.838;2.402;2023-07-08T01:32:40;9.50;;;4.90;;
65853;SDS011;52627;48.838;2.402;2023-07-08T01:35:13;8.70;;;4.50;;
65853;SDS011;52627;48.838;2.402;2023-07-08T01:37:46;7.80;;;4.00;;
65853;SDS011;52627;48.838;2.402;2023-07-08T01:42:47;9.60;;;4.20;;
65853;SDS011;52627;48.838;2.402;2023-07-08T01:45:16;8.80;;;4.00;;
65853;SDS011;52627;48.838;2.402;2023-07-08T01:47:50;8.10;;;3.70;;
65853;SDS011;52627;48.838;2.402;2023-07-08T01:50:21;10.50;;;4.50;;
65853;SDS011;52627;48.838;2.402;2023-07-08T01:52:52;8.80;;;4.50;;
65853;SDS011;52627;48.838;2.402;2023-07-08T01:55:23;8.90;;;4.20;;
65853;SDS011;52627;48.838;2.402;2023-07-08T01:57:52;9.20;;;3.90;;
65853;SDS011;52627;48.838;2.402;2023-07-08T02:00:22;7.20;;;4.00;;
65853;SDS011;52627;48.838;2.402;2023-07-08T02:02:51;9.70;;;3.80;;
65853;SDS011;52627;48.838;2.402;2023-07-08T02:05:18;12.00;;;4.80;;
65853;SDS011;52627;48.838;2.402;2023-07-08T02:07:46;9.30;;;4.10;;
65853;SDS011;52627;48.838;2.402;2023-07-08T02:10:13;8.10;;;3.70;;
65853;SDS011;52627;48.838;2.402;2023-07-08T02:12:41;8.20;;;4.60;;
65853;SDS011;52627;48.838;2.402;2023-07-08T02:15:09;8.50;;;4.10;;
65853;SDS011;52627;48.838;2.402;2023-07-08T02:17:37;9.50;;;3.80;;
65853;SDS011;52627;48.838;2.402;2023-07-08T02:20:05;7.40;;;3.80;;
65853;SDS011;52627;48.838;2.402;2023-07-08T02:22:35;10.20;;;3.70;;
65853;SDS011;52627;48.838;2.402;2023-07-08T02:25:04;6.10;;;3.30;;
65853;SDS011;52627;48.838;2.402;2023-07-08T02:27:32;8.20;;;3.40;;
65853;SDS011;52627;48.838;2.402;2023-07-08T02:30:00;7.00;;;3.20;;
65853;SDS011;52627;48.838;2.402;2023-07-08T02:32:28;6.00;;;3.10;;
65853;SDS011;52627;48.838;2.402;2023-07-08T02:34:56;7.20;;;2.70;;
65853;SDS011;52627;48.838;2.402;2023-07-08T02:37:23;8.80;;;2.60;;
65853;SDS011;52627;48.838;2.402;2023-07-08T02:39:50;9.10;;;2.80;;
65853;SDS011;52627;48.838;2.402;2023-07-08T02:42:18;5.70;;;2.60;;
65853;SDS011;52627;48.838;2.402;2023-07-08T02:44:45;7.30;;;2.80;;
65853;SDS011;52627;48.838;2.402;2023-07-08T02:47:13;8.90;;;2.80;;
65853;SDS011;52627;48.838;2.402;2023-07-08T02:49:40;9.00;;;3.00;;
65853;SDS011;52627;48.838;2.402;2023-07-08T02:52:08;7.10;;;2.60;;
65853;SDS011;52627;48.838;2.402;2023-07-08T02:54:35;5.70;;;2.60;;
65853;SDS011;52627;48.838;2.402;2023-07-08T02:57:03;5.80;;;2.30;;
65853;SDS011;52627;48.838;2.402;2023-07-08T02:59:31;7.50;;;2.50;;
65853;SDS011;52627;48.838;2.402;2023-07-08T03:01:58;5.90;;;2.50;;
65853;SDS011;52627;48.838;2.402;2023-07-08T03:04:25;7.40;;;2.30;;
65853;SDS011;52627;48.838;2.402;2023-07-08T03:06:53;6.10;;;2.20;;
65853;SDS011;52627;48.838;2.402;2023-07-08T03:09:20;5.40;;;2.00;;
65853;SDS011;52627;48.838;2.402;2023-07-08T03:11:48;5.50;;;2.10;;
65853;SDS011;52627;48.838;2.402;2023-07-08T03:14:15;7.20;;;2.30;;
65853;SDS011;52627;48.838;2.402;2023-07-08T03:16:43;4.90;;;2.20;;
65853;SDS011;52627;48.838;2.402;2023-07-08T03:19:11;6.80;;;1.80;;
65853;SDS011;52627;48.838;2.402;2023-07-08T03:21:42;4.20;;;1.90;;
65853;SDS011;52627;48.838;2.402;2023-07-08T03:24:11;4.90;;;2.00;;
65853;SDS011;52627;48.838;2.402;2023-07-08T03:26:45;4.90;;;2.00;;
65853;SDS011;52627;48.838;2.402;2023-07-08T03:29:15;7.20;;;2.50;;
65853;SDS011;52627;48.838;2.402;2023-07-08T03:31:45;4.50;;;1.90;;
65853;SDS011;52627;48.838;2.402;2023-07-08T03:34:14;6.40;;;1.90;;
65853;SDS011;52627;48.838;2.402;2023-07-08T03:36:48;4.50;;;2.00;;
65853;SDS011;52627;48.838;2.402;2023-07-08T03:39:22;4.60;;;2.10;;
65853;SDS011;52627;48.838;2.402;2023-07-08T03:41:52;5.60;;;2.10;;
65853;SDS011;52627;48.838;2.402;2023-07-08T03:44:20;5.00;;;1.90;;
65853;SDS011;52627;48.838;2.402;2023-07-08T03:46:48;4.80;;;1.90;;
65853;SDS011;52627;48.838;2.402;2023-07-08T03:49:18;4.80;;;1.90;;
65853;SDS011;52627;48.838;2.402;2023-07-08T03:51:51;4.70;;;1.80;;
65853;SDS011;52627;48.838;2.402;2023-07-08T03:54:23;4.50;;;2.00;;
65853;SDS011;52627;48.838;2.402;2023-07-08T03:56:51;6.00;;;1.90;;
65853;SDS011;52627;48.838;2.402;2023-07-08T03:59:19;4.20;;;1.70;;
65853;SDS011;52627;48.838;2.402;2023-07-08T04:01:47;3.60;;;1.50;;
65853;SDS011;52627;48.838;2.402;2023-07-08T04:04:15;5.60;;;2.30;;
65853;SDS011;52627;48.838;2.402;2023-07-08T04:06:43;6.50;;;3.20;;
65853;SDS011;52627;48.838;2.402;2023-07-08T04:09:12;8.90;;;3.10;;
65853;SDS011;52627;48.838;2.402;2023-07-08T04:11:40;5.40;;;2.60;;
65853;SDS011;52627;48.838;2.402;2023-07-08T04:14:09;5.70;;;2.80;;
65853;SDS011;52627;48.838;2.402;2023-07-08T04:16:50;7.30;;;3.10;;
65853;SDS011;52627;48.838;2.402;2023-07-08T04:19:25;4.70;;;2.50;;
65853;SDS011;52627;48.838;2.402;2023-07-08T04:21:54;5.30;;;2.40;;
65853;SDS011;52627;48.838;2.402;2023-07-08T04:24:22;5.40;;;2.50;;
65853;SDS011;52627;48.838;2.402;2023-07-08T04:26:49;5.50;;;2.50;;
65853;SDS011;52627;48.838;2.402;2023-07-08T04:29:20;5.80;;;2.00;;
65853;SDS011;52627;48.838;2.402;2023-07-08T04:31:49;6.30;;;2.20;;
65853;SDS011;52627;48.838;2.402;2023-07-08T04:34:17;4.90;;;1.80;;
65853;SDS011;52627;48.838;2.402;2023-07-08T04:36:45;6.50;;;2.30;;
65853;SDS011;52627;48.838;2.402;2023-07-08T04:39:13;4.30;;;2.00;;
65853;SDS011;52627;48.838;2.402;2023-07-08T04:41:40;5.80;;;2.10;;
65853;SDS011;52627;48.838;2.402;2023-07-08T04:44:10;6.90;;;2.30;;
65853;SDS011;52627;48.838;2.402;2023-07-08T04:46:45;6.00;;;2.80;;
65853;SDS011;52627;48.838;2.402;2023-07-08T04:49:21;5.80;;;2.60;;
65853;SDS011;52627;48.838;2.402;2023-07-08T04:51:52;5.50;;;2.60;;
65853;SDS011;52627;48.838;2.402;2023-07-08T04:54:20;6.60;;;2.50;;
65853;SDS011;52627;48.838;2.402;2023-07-08T04:56:48;5.80;;;2.90;;
65853;SDS011;52627;48.838;2.402;2023-07-08T04:59:18;6.70;;;2.50;;
65853;SDS011;52627;48.838;2.402;2023-07-08T05:01:49;7.70;;;2.40;;
65853;SDS011;52627;48.838;2.402;2023-07-08T05:04:19;6.70;;;2.40;;
65853;SDS011;52627;48.838;2.402;2023-07-08T05:06:48;4.70;;;2.20;;
65853;SDS011;52627;48.838;2.402;2023-07-08T05:09:16;7.80;;;1.90;;
65853;SDS011;52627;48.838;2.402;2023-07-08T05:11:44;5.10;;;2.00;;
65853;SDS011;52627;48.838;2.402;2023-07-08T05:14:12;5.00;;;2.00;;
65853;SDS011;52627;48.838;2.402;2023-07-08T05:16:41;5.20;;;2.00;;
65853;SDS011;52627;48.838;2.402;2023-07-08T05:19:08;6.00;;;2.00;;
65853;SDS011;52627;48.838;2.402;2023-07-08T05:21:37;6.10;;;2.40;;
65853;SDS011;52627;48.838;2.402;2023-07-08T05:24:05;5.80;;;2.50;;
65853;SDS011;52627;48.838;2.402;2023-07-08T05:26:34;5.00;;;2.10;;
65853;SDS011;52627;48.838;2.402;2023-07-08T05:29:02;6.90;;;2.20;;
65853;SDS011;52627;48.838;2.402;2023-07-08T05:31:29;5.80;;;2.20;;
65853;SDS011;52627;48.838;2.402;2023-07-08T05:34:15;8.30;;;2.30;;
65853;SDS011;52627;48.838;2.402;2023-07-08T05:36:43;5.60;;;2.20;;
65853;SDS011;52627;48.838;2.402;2023-07-08T05:39:10;8.00;;;2.40;;
65853;SDS011;52627;48.838;2.402;2023-07-08T05:41:38;4.90;;;2.00;;
65853;SDS011;52627;48.838;2.402;2023-07-08T05:44:05;4.90;;;2.20;;
65853;SDS011;52627;48.838;2.402;2023-07-08T05:46:33;6.20;;;2.60;;
65853;SDS011;52627;48.838;2.402;2023-07-08T05:49:00;6.20;;;2.80;;
65853;SDS011;52627;48.838;2.402;2023-07-08T05:51:28;6.60;;;2.70;;
65853;SDS011;52627;48.838;2.402;2023-07-08T05:53:55;8.10;;;2.90;;
65853;SDS011;52627;48.838;2.402;2023-07-08T05:56:23;8.30;;;2.90;;
65853;SDS011;52627;48.838;2.402;2023-07-08T05:58:50;7.10;;;2.60;;
65853;SDS011;52627;48.838;2.402;2023-07-08T06:01:18;6.20;;;2.40;;
65853;SDS011;52627;48.838;2.402;2023-07-08T06:03:45;5.90;;;2.50;;
65853;SDS011;52627;48.838;2.402;2023-07-08T06:06:13;5.50;;;2.00;;
65853;SDS011;52627;48.838;2.402;2023-07-08T06:08:41;6.50;;;2.40;;
65853;SDS011;52627;48.838;2.402;2023-07-08T06:11:09;7.40;;;2.50;;
65853;SDS011;52627;48.838;2.402;2023-07-08T06:13:36;4.90;;;2.20;;
65853;SDS011;52627;48.838;2.402;2023-07-08T06:16:04;8.00;;;2.40;;
65853;SDS011;52627;48.838;2.402;2023-07-08T06:18:31;6.70;;;2.40;;
65853;SDS011;52627;48.838;2.402;2023-07-08T06:20:59;6.30;;;2.20;;
65853;SDS011;52627;48.838;2.402;2023-07-08T06:23:29;6.40;;;2.50;;
65853;SDS011;52627;48.838;2.402;2023-07-08T06:25:57;5.80;;;2.20;;
65853;SDS011;52627;48.838;2.402;2023-07-08T06:28:25;4.80;;;2.00;;
65853;SDS011;52627;48.838;2.402;2023-07-08T06:30:52;5.40;;;2.10;;
65853;SDS011;52627;48.838;2.402;2023-07-08T06:33:20;6.00;;;1.90;;
65853;SDS011;52627;48.838;2.402;2023-07-08T06:35:47;5.40;;;2.00;;
65853;SDS011;52627;48.838;2.402;2023-07-08T06:38:14;6.70;;;2.30;;
65853;SDS011;52627;48.838;2.402;2023-07-08T06:40:42;5.00;;;1.60;;
65853;SDS011;52627;48.838;2.402;2023-07-08T06:43:09;4.90;;;1.90;;
65853;SDS011;52627;48.838;2.402;2023-07-08T06:45:37;5.30;;;2.20;;
65853;SDS011;52627;48.838;2.402;2023-07-08T06:48:04;4.50;;;1.70;;
65853;SDS011;52627;48.838;2.402;2023-07-08T06:50:32;4.70;;;1.90;;
65853;SDS011;52627;48.838;2.402;2023-07-08T06:53:00;5.20;;;2.00;;
65853;SDS011;52627;48.838;2.402;2023-07-08T06:55:27;6.60;;;2.30;;
65853;SDS011;52627;48.838;2.402;2023-07-08T06:57:57;7.00;;;2.20;;
65853;SDS011;52627;48.838;2.402;2023-07-08T07:00:24;4.30;;;1.80;;
65853;SDS011;52627;48.838;2.402;2023-07-08T07:02:52;4.60;;;1.90;;
65853;SDS011;52627;48.838;2.402;2023-07-08T07:05:19;6.60;;;2.00;;
65853;SDS011;52627;48.838;2.402;2023-07-08T07:07:49;4.40;;;2.10;;
65853;SDS011;52627;48.838;2.402;2023-07-08T07:10:17;4.90;;;1.90;;
65853;SDS011;52627;48.838;2.402;2023-07-08T07:12:44;5.10;;;1.80;;
65853;SDS011;52627;48.838;2.402;2023-07-08T07:15:12;4.80;;;1.80;;
65853;SDS011;52627;48.838;2.402;2023-07-08T07:17:39;5.30;;;2.00;;
65853;SDS011;52627;48.838;2.402;2023-07-08T07:20:08;5.10;;;2.10;;
65853;SDS011;52627;48.838;2.402;2023-07-08T07:22:35;5.00;;;1.80;;
65853;SDS011;52627;48.838;2.402;2023-07-08T07:25:04;6.00;;;2.20;;
65853;SDS011;52627;48.838;2.402;2023-07-08T07:27:32;5.20;;;2.20;;
65853;SDS011;52627;48.838;2.402;2023-07-08T07:29:59;6.20;;;2.20;;
65853;SDS011;52627;48.838;2.402;2023-07-08T07:32:27;5.40;;;2.10;;
65853;SDS011;52627;48.838;2.402;2023-07-08T07:34:56;5.60;;;2.10;;
65853;SDS011;52627;48.838;2.402;2023-07-08T07:37:25;5.10;;;2.00;;
65853;SDS011;52627;48.838;2.402;2023-07-08T07:39:53;4.40;;;2.20;;
65853;SDS011;52627;48.838;2.402;2023-07-08T07:42:20;5.20;;;1.90;;
65853;SDS011;52627;48.838;2.402;2023-07-08T07:44:48;4.90;;;2.50;;
65853;SDS011;52627;48.838;2.402;2023-07-08T07:47:15;4.90;;;2.10;;
65853;SDS011;52627;48.838;2.402;2023-07-08T07:49:42;5.40;;;2.40;;
65853;SDS011;52627;48.838;2.402;2023-07-08T07:52:10;4.80;;;2.00;;
65853;SDS011;52627;48.838;2.402;2023-07-08T07:54:39;6.00;;;2.40;;
65853;SDS011;52627;48.838;2.402;2023-07-08T07:57:07;6.00;;;2.40;;
65853;SDS011;52627;48.838;2.402;2023-07-08T07:59:34;9.10;;;2.30;;
65853;SDS011;52627;48.838;2.402;2023-07-08T08:02:02;5.40;;;2.20;;
65853;SDS011;52627;48.838;2.402;2023-07-08T08:04:30;5.10;;;2.50;;
65853;SDS011;52627;48.838;2.402;2023-07-08T08:06:58;6.10;;;2.20;;
65853;SDS011;52627;48.838;2.402;2023-07-08T08:09:25;6.10;;;2.30;;
65853;SDS011;52627;48.838;2.402;2023-07-08T08:11:53;6.00;;;2.30;;
65853;SDS011;52627;48.838;2.402;2023-07-08T08:14:21;3.60;;;1.80;;
65853;SDS011;52627;48.838;2.402;2023-07-08T08:16:49;6.00;;;2.40;;
65853;SDS011;52627;48.838;2.402;2023-07-08T08:19:17;4.90;;;2.10;;
65853;SDS011;52627;48.838;2.402;2023-07-08T08:21:44;5.10;;;2.40;;
65853;SDS011;52627;48.838;2.402;2023-07-08T08:24:12;5.00;;;2.50;;
65853;SDS011;52627;48.838;2.402;2023-07-08T08:26:39;6.90;;;2.50;;
65853;SDS011;52627;48.838;2.402;2023-07-08T08:29:06;5.50;;;2.40;;
65853;SDS011;52627;48.838;2.402;2023-07-08T08:31:34;4.70;;;2.60;;
65853;SDS011;52627;48.838;2.402;2023-07-08T08:34:01;6.10;;;2.50;;
65853;SDS011;52627;48.838;2.402;2023-07-08T08:36:29;4.90;;;2.40;;
65853;SDS011;52627;48.838;2.402;2023-07-08T08:38:56;5.70;;;2.40;;
65853;SDS011;52627;48.838;2.402;2023-07-08T08:41:32;5.50;;;2.50;;
65853;SDS011;52627;48.838;2.402;2023-07-08T08:44:02;8.20;;;2.80;;
65853;SDS011;52627;48.838;2.402;2023-07-08T08:47:27;7.00;;;2.70;;
65853;SDS011;52627;48.838;2.402;2023-07-08T08:50:01;5.40;;;2.60;;
65853;SDS011;52627;48.838;2.402;2023-07-08T08:52:52;5.20;;;2.30;;
65853;SDS011;52627;48.838;2.402;2023-07-08T08:55:23;6.80;;;2.70;;
65853;SDS011;52627;48.838;2.402;2023-07-08T09:01:02;5.10;;;2.60;;
65853;SDS011;52627;48.838;2.402;2023-07-08T09:03:54;5.20;;;2.60;;
65853;SDS011;52627;48.838;2.402;2023-07-08T09:06:27;5.00;;;2.70;;
65853;SDS011;52627;48.838;2.402;2023-07-08T09:09:00;5.90;;;2.60;;
65853;SDS011;52627;48.838;2.402;2023-07-08T09:14:16;6.60;;;2.50;;
65853;SDS011;52627;48.838;2.402;2023-07-08T09:17:19;5.80;;;2.50;;
65853;SDS011;52627;48.838;2.402;2023-07-08T09:25:37;5.00;;;2.60;;
65853;SDS011;52627;48.838;2.402;2023-07-08T09:28:13;6.30;;;2.90;;
65853;SDS011;52627;48.838;2.402;2023-07-08T09:30:48;4.60;;;2.70;;
65853;SDS011;52627;48.838;2.402;2023-07-08T09:33:16;5.00;;;2.40;;
65853;SDS011;52627;48.838;2.402;2023-07-08T09:35:46;6.00;;;3.80;;
65853;SDS011;52627;48.838;2.402;2023-07-08T09:38:18;7.10;;;3.20;;
65853;SDS011;52627;48.838;2.402;2023-07-08T09:40:51;6.70;;;2.80;;
65853;SDS011;52627;48.838;2.402;2023-07-08T09:43:34;4.50;;;2.30;;
65853;SDS011;52627;48.838;2.402;2023-07-08T09:46:04;6.00;;;3.00;;
65853;SDS011;52627;48.838;2.402;2023-07-08T09:48:36;6.00;;;2.90;;
65853;SDS011;52627;48.838;2.402;2023-07-08T09:51:05;6.10;;;2.70;;
65853;SDS011;52627;48.838;2.402;2023-07-08T09:53:33;4.60;;;2.80;;
65853;SDS011;52627;48.838;2.402;2023-07-08T09:56:03;5.20;;;2.50;;
65853;SDS011;52627;48.838;2.402;2023-07-08T09:58:37;6.90;;;2.70;;
65853;SDS011;52627;48.838;2.402;2023-07-08T10:01:17;4.60;;;2.30;;
65853;SDS011;52627;48.838;2.402;2023-07-08T10:03:49;5.30;;;2.70;;
65853;SDS011;52627;48.838;2.402;2023-07-08T10:06:24;5.00;;;2.50;;
65853;SDS011;52627;48.838;2.402;2023-07-08T10:08:55;5.40;;;3.00;;
65853;SDS011;52627;48.838;2.402;2023-07-08T10:11:32;6.30;;;2.90;;
65853;SDS011;52627;48.838;2.402;2023-07-08T10:14:23;4.00;;;2.20;;
65853;SDS011;52627;48.838;2.402;2023-07-08T10:16:53;4.50;;;2.30;;
65853;SDS011;52627;48.838;2.402;2023-07-08T10:19:21;5.30;;;2.80;;
65853;SDS011;52627;48.838;2.402;2023-07-08T10:24:58;5.30;;;2.50;;
65853;SDS011;52627;48.838;2.402;2023-07-08T10:27:55;4.30;;;2.40;;
65853;SDS011;52627;48.838;2.402;2023-07-08T10:30:41;7.50;;;2.50;;
65853;SDS011;52627;48.838;2.402;2023-07-08T10:51:34;4.60;;;2.60;;
65853;SDS011;52627;48.838;2.402;2023-07-08T10:56:55;5.90;;;2.80;;
65853;SDS011;52627;48.838;2.402;2023-07-08T11:05:27;5.60;;;2.60;;
65853;SDS011;52627;48.838;2.402;2023-07-08T11:08:19;6.00;;;3.40;;
65853;SDS011;52627;48.838;2.402;2023-07-08T11:11:03;4.20;;;2.40;;
65853;SDS011;52627;48.838;2.402;2023-07-08T11:14:09;5.30;;;2.90;;
65853;SDS011;52627;48.838;2.402;2023-07-08T11:20:21;6.80;;;2.90;;
65853;SDS011;52627;48.838;2.402;2023-07-08T11:22:56;4.80;;;2.60;;
65853;SDS011;52627;48.838;2.402;2023-07-08T11:25:27;6.50;;;3.10;;
65853;SDS011;52627;48.838;2.402;2023-07-08T11:27:59;4.90;;;3.10;;
65853;SDS011;52627;48.838;2.402;2023-07-08T11:30:32;5.40;;;2.90;;
65853;SDS011;52627;48.838;2.402;2023-07-08T11:33:06;4.60;;;2.60;;
65853;SDS011;52627;48.838;2.402;2023-07-08T11:35:52;5.80;;;2.70;;
65853;SDS011;52627;48.838;2.402;2023-07-08T11:38:24;5.50;;;3.00;;
65853;SDS011;52627;48.838;2.402;2023-07-08T11:41:04;5.20;;;3.00;;
65853;SDS011;52627;48.838;2.402;2023-07-08T11:43:48;6.30;;;2.90;;
65853;SDS011;52627;48.838;2.402;2023-07-08T11:46:24;6.10;;;3.20;;
65853;SDS011;52627;48.838;2.402;2023-07-08T11:49:03;5.50;;;2.90;;
65853;SDS011;52627;48.838;2.402;2023-07-08T11:51:34;5.10;;;2.60;;
65853;SDS011;52627;48.838;2.402;2023-07-08T11:54:34;7.80;;;3.30;;
65853;SDS011;52627;48.838;2.402;2023-07-08T11:57:07;4.30;;;2.50;;
65853;SDS011;52627;48.838;2.402;2023-07-08T11:59:42;7.00;;;2.70;;
65853;SDS011;52627;48.838;2.402;2023-07-08T12:02:17;5.10;;;2.90;;
65853;SDS011;52627;48.838;2.402;2023-07-08T12:07:40;5.80;;;2.90;;
65853;SDS011;52627;48.838;2.402;2023-07-08T12:12:46;5.60;;;2.90;;
65853;SDS011;52627;48.838;2.402;2023-07-08T12:15:22;4.40;;;2.70;;
65853;SDS011;52627;48.838;2.402;2023-07-08T12:17:55;6.20;;;2.90;;
65853;SDS011;52627;48.838;2.402;2023-07-08T12:20:37;4.70;;;2.50;;
65853;SDS011;52627;48.838;2.402;2023-07-08T12:23:20;5.30;;;2.70;;
65853;SDS011;52627;48.838;2.402;2023-07-08T12:25:52;5.30;;;2.30;;
65853;SDS011;52627;48.838;2.402;2023-07-08T12:30:50;5.40;;;2.80;;
65853;SDS011;52627;48.838;2.402;2023-07-08T12:33:28;5.20;;;2.60;;
65853;SDS011;52627;48.838;2.402;2023-07-08T12:36:01;4.70;;;2.60;;
65853;SDS011;52627;48.838;2.402;2023-07-08T12:38:39;6.90;;;2.90;;
65853;SDS011;52627;48.838;2.402;2023-07-08T12:41:13;6.00;;;2.60;;
65853;SDS011;52627;48.838;2.402;2023-07-08T12:43:45;5.30;;;2.70;;
65853;SDS011;52627;48.838;2.402;2023-07-08T12:48:45;5.90;;;2.70;;
65853;SDS011;52627;48.838;2.402;2023-07-08T12:51:15;5.10;;;2.50;;
65853;SDS011;52627;48.838;2.402;2023-07-08T12:53:45;4.50;;;2.60;;
65853;SDS011;52627;48.838;2.402;2023-07-08T12:56:13;6.70;;;2.70;;
65853;SDS011;52627;48.838;2.402;2023-07-08T12:58:44;4.10;;;2.50;;
65853;SDS011;52627;48.838;2.402;2023-07-08T13:01:17;5.00;;;2.60;;
65853;SDS011;52627;48.838;2.402;2023-07-08T13:03:51;5.10;;;2.80;;
65853;SDS011;52627;48.838;2.402;2023-07-08T13:06:23;7.20;;;3.00;;
65853;SDS011;52627;48.838;2.402;2023-07-08T13:08:53;7.60;;;3.00;;
65853;SDS011;52627;48.838;2.402;2023-07-08T13:11:23;7.20;;;2.60;;
65853;SDS011;52627;48.838;2.402;2023-07-08T13:13:54;4.60;;;2.40;;
65853;SDS011;52627;48.838;2.402;2023-07-08T13:16:31;6.10;;;2.80;;
65853;SDS011;52627;48.838;2.402;2023-07-08T13:19:01;8.60;;;4.00;;
65853;SDS011;52627;48.838;2.402;2023-07-08T13:21:30;5.90;;;3.00;;
65853;SDS011;52627;48.838;2.402;2023-07-08T13:23:59;6.40;;;2.80;;
65853;SDS011;52627;48.838;2.402;2023-07-08T13:26:29;5.40;;;2.80;;
65853;SDS011;52627;48.838;2.402;2023-07-08T13:29:04;5.90;;;2.70;;
65853;SDS011;52627;48.838;2.402;2023-07-08T13:31:38;5.10;;;2.90;;
65853;SDS011;52627;48.838;2.402;2023-07-08T13:34:13;5.00;;;2.30;;
65853;SDS011;52627;48.838;2.402;2023-07-08T13:36:46;5.90;;;2.50;;
65853;SDS011;52627;48.838;2.402;2023-07-08T13:39:29;6.10;;;2.90;;
65853;SDS011;52627;48.838;2.402;2023-07-08T13:42:00;5.90;;;2.80;;
65853;SDS011;52627;48.838;2.402;2023-07-08T13:44:28;5.10;;;2.60;;
65853;SDS011;52627;48.838;2.402;2023-07-08T13:46:57;7.90;;;2.60;;
65853;SDS011;52627;48.838;2.402;2023-07-08T13:49:43;6.00;;;2.80;;
65853;SDS011;52627;48.838;2.402;2023-07-08T13:54:57;4.00;;;2.50;;
65853;SDS011;52627;48.838;2.402;2023-07-08T13:57:33;6.60;;;2.40;;
65853;SDS011;52627;48.838;2.402;2023-07-08T14:00:06;4.00;;;2.20;;
65853;SDS011;52627;48.838;2.402;2023-07-08T14:02:39;5.40;;;2.60;;
65853;SDS011;52627;48.838;2.402;2023-07-08T14:05:13;5.20;;;2.40;;
65853;SDS011;52627;48.838;2.402;2023-07-08T14:07:41;5.80;;;2.60;;
65853;SDS011;52627;48.838;2.402;2023-07-08T14:10:11;5.30;;;2.90;;
65853;SDS011;52627;48.838;2.402;2023-07-08T14:12:40;5.60;;;2.80;;
65853;SDS011;52627;48.838;2.402;2023-07-08T14:15:09;5.80;;;2.30;;
65853;SDS011;52627;48.838;2.402;2023-07-08T14:17:38;5.30;;;2.70;;
65853;SDS011;52627;48.838;2.402;2023-07-08T14:20:15;5.20;;;2.70;;
65853;SDS011;52627;48.838;2.402;2023-07-08T14:22:43;4.50;;;2.30;;
65853;SDS011;52627;48.838;2.402;2023-07-08T14:25:14;4.60;;;2.40;;
65853;SDS011;52627;48.838;2.402;2023-07-08T14:27:42;4.70;;;2.10;;
65853;SDS011;52627;48.838;2.402;2023-07-08T14:30:10;4.80;;;2.40;;
65853;SDS011;52627;48.838;2.402;2023-07-08T14:32:39;6.10;;;2.80;;
65853;SDS011;52627;48.838;2.402;2023-07-08T14:35:17;4.70;;;2.20;;
65853;SDS011;52627;48.838;2.402;2023-07-08T14:37:48;5.10;;;2.60;;
65853;SDS011;52627;48.838;2.402;2023-07-08T14:40:37;6.40;;;2.40;;
65853;SDS011;52627;48.838;2.402;2023-07-08T14:43:12;7.80;;;2.80;;
65853;SDS011;52627;48.838;2.402;2023-07-08T14:45:48;4.10;;;2.40;;
65853;SDS011;52627;48.838;2.402;2023-07-08T14:48:16;5.20;;;2.20;;
65853;SDS011;52627;48.838;2.402;2023-07-08T14:50:44;5.30;;;2.60;;
65853;SDS011;52627;48.838;2.402;2023-07-08T14:53:16;4.30;;;1.90;;
65853;SDS011;52627;48.838;2.402;2023-07-08T14:55:47;4.00;;;1.90;;
65853;SDS011;52627;48.838;2.402;2023-07-08T14:58:21;5.20;;;2.30;;
65853;SDS011;52627;48.838;2.402;2023-07-08T15:00:54;5.90;;;2.20;;
65853;SDS011;52627;48.838;2.402;2023-07-08T15:03:26;5.00;;;2.20;;
65853;SDS011;52627;48.838;2.402;2023-07-08T15:05:54;4.30;;;2.10;;
65853;SDS011;52627;48.838;2.402;2023-07-08T15:08:22;5.10;;;2.50;;
65853;SDS011;52627;48.838;2.402;2023-07-08T15:10:52;5.70;;;2.70;;
65853;SDS011;52627;48.838;2.402;2023-07-08T15:13:24;5.30;;;2.60;;
65853;SDS011;52627;48.838;2.402;2023-07-08T15:15:54;5.80;;;2.70;;
65853;SDS011;52627;48.838;2.402;2023-07-08T15:18:22;6.20;;;2.60;;
65853;SDS011;52627;48.838;2.402;2023-07-08T15:20:50;6.20;;;2.50;;
65853;SDS011;52627;48.838;2.402;2023-07-08T15:23:17;5.60;;;2.30;;
65853;SDS011;52627;48.838;2.402;2023-07-08T15:25:47;3.70;;;1.90;;
65853;SDS011;52627;48.838;2.402;2023-07-08T15:28:18;7.00;;;2.40;;
65853;SDS011;52627;48.838;2.402;2023-07-08T15:30:47;4.90;;;2.30;;
65853;SDS011;52627;48.838;2.402;2023-07-08T15:33:16;6.10;;;2.40;;
65853;SDS011;52627;48.838;2.402;2023-07-08T15:35:43;4.40;;;2.50;;
65853;SDS011;52627;48.838;2.402;2023-07-08T15:38:11;6.00;;;2.60;;
65853;SDS011;52627;48.838;2.402;2023-07-08T15:40:39;6.60;;;2.60;;
65853;SDS011;52627;48.838;2.402;2023-07-08T15:43:12;5.40;;;2.30;;
65853;SDS011;52627;48.838;2.402;2023-07-08T15:45:41;4.90;;;2.70;;
65853;SDS011;52627;48.838;2.402;2023-07-08T15:48:15;5.80;;;2.20;;
65853;SDS011;52627;48.838;2.402;2023-07-08T15:50:44;4.90;;;2.10;;
65853;SDS011;52627;48.838;2.402;2023-07-08T15:53:14;5.00;;;2.30;;
65853;SDS011;52627;48.838;2.402;2023-07-08T15:55:44;5.20;;;2.40;;
65853;SDS011;52627;48.838;2.402;2023-07-08T15:58:28;5.20;;;2.20;;
65853;SDS011;52627;48.838;2.402;2023-07-08T16:01:00;8.20;;;2.50;;
65853;SDS011;52627;48.838;2.402;2023-07-08T16:03:32;4.60;;;2.20;;
65853;SDS011;52627;48.838;2.402;2023-07-08T16:06:01;4.80;;;2.10;;
65853;SDS011;52627;48.838;2.402;2023-07-08T16:08:29;3.90;;;2.10;;
65853;SDS011;52627;48.838;2.402;2023-07-08T16:11:13;4.40;;;2.00;;
65853;SDS011;52627;48.838;2.402;2023-07-08T16:13:44;7.10;;;2.30;;
65853;SDS011;52627;48.838;2.402;2023-07-08T16:16:13;6.00;;;2.40;;
65853;SDS011;52627;48.838;2.402;2023-07-08T16:18:41;5.80;;;2.50;;
65853;SDS011;52627;48.838;2.402;2023-07-08T16:21:08;5.80;;;2.30;;
65853;SDS011;52627;48.838;2.402;2023-07-08T16:23:38;4.50;;;2.30;;
65853;SDS011;52627;48.838;2.402;2023-07-08T16:26:06;5.10;;;2.00;;